Flight Track Log - Related Links

Times and Time Zones

All times are in EDT time to prevent confusion due to time zone crossing. See the LT912 flight status page for this flight to view local times or setup timezone preferences in your user account.

Time Position Orientation Groundspeed Altitude Reporting Facility
EDT Latitude Longitude Course Direction KTS MPH feet Rate Location/Type
Mon 09:19:49 PM 53.3000 -113.6333 310° West 120 138 4,500  Level Edmonton Center
Mon 09:20:49 PM 53.3333 -113.5833 42° Northeast 130 150 6,500 1,900 Climbing Edmonton Center
Mon 09:21:49 PM 53.3500 -113.5667 31° Northeast 150 173 8,300 1,785 Climbing Edmonton Center
Mon 09:22:50 PM 53.4000 -113.5167 31° Northeast 160 184 10,100 1,785 Climbing Edmonton Center
Mon 09:23:50 PM 53.4333 -113.5000 17° North 160 184 11,900 1,800 Climbing Edmonton Center
Mon 09:24:00 PM 53.6593 -113.3411 20° North  Level FlightAware Approximate
Mon 09:24:50 PM 53.4667 -113.4833 17° North 150 173 13,700  Level Edmonton Center
Mon 09:25:50 PM 53.5333 -113.4333 24° Northeast 160 184 15,400 1,600 Climbing Edmonton Center
Mon 09:26:50 PM 53.5667 -113.4167 17° North 170 196 16,900 1,500 Climbing Edmonton Center
Mon 09:27:50 PM 53.6167 -113.4000 11° North 170 196 18,400 1,350 Climbing Edmonton Center
Mon 09:28:50 PM 53.6500 -113.3500 42° Northeast 180 207 19,600 1,150 Climbing Edmonton Center
Mon 09:29:50 PM 53.7000 -113.3333 11° North 190 219 20,700 1,200 Climbing Edmonton Center
Mon 09:30:50 PM 53.7667 -113.2833 24° Northeast 190 219 22,000 1,100 Climbing Edmonton Center
Mon 09:31:50 PM 53.8167 -113.2667 11° North 190 219 22,900 500 Climbing Edmonton Center
Mon 09:32:50 PM 53.8667 -113.2167 31° Northeast 230 265 23,000 50 Climbing Edmonton Center
Mon 09:33:50 PM 53.9167 -113.1667 30° Northeast 250 288 23,000  Level Edmonton Center
Mon 09:34:50 PM 54.0000 -113.1333 13° North 260 299 23,000  Level Edmonton Center
Mon 09:35:50 PM 54.0667 -113.0833 24° Northeast 260 299 23,000  Level Edmonton Center
Mon 09:36:50 PM 54.1333 -113.0333 24° Northeast 260 299 23,000  Level Edmonton Center
Mon 09:37:50 PM 54.2000 -113.0000 16° North 260 299 23,000  Level Edmonton Center
Mon 09:38:50 PM 54.2667 -112.9500 24° Northeast 260 299 23,000  Level Edmonton Center
Mon 09:39:50 PM 54.3333 -112.9000 24° Northeast 260 299 23,000  Level Edmonton Center
Mon 09:40:50 PM 54.4000 -112.8667 16° North 260 299 23,000  Level Edmonton Center
Mon 09:41:50 PM 54.4667 -112.8167 24° Northeast 260 299 23,000  Level Edmonton Center
Mon 09:42:50 PM 54.5500 -112.7667 19° North 270 311 23,000  Level Edmonton Center
Mon 09:43:50 PM 54.6167 -112.7000 30° Northeast 270 311 23,000  Level Edmonton Center
Mon 09:44:50 PM 54.6833 -112.6500 23° Northeast 270 311 23,000  Level Edmonton Center
Mon 09:45:50 PM 54.7667 -112.6000 19° North 270 311 23,000  Level Edmonton Center
Mon 09:46:50 PM 54.8333 -112.5667 16° North 280 322 23,000  Level Edmonton Center
Mon 09:47:50 PM 54.9000 -112.5167 23° Northeast 270 311 23,000  Level Edmonton Center
Mon 09:48:50 PM 54.9667 -112.4667 23° Northeast 270 311 23,000  Level Edmonton Center
Mon 09:49:50 PM 55.0500 -112.4167 19° North 270 311 23,000  Level Edmonton Center
Mon 09:50:50 PM 55.1167 -112.3500 30° Northeast 280 322 23,000  Level Edmonton Center
Mon 09:51:50 PM 55.1833 -112.3000 23° Northeast 280 322 23,000  Level Edmonton Center
Mon 09:52:50 PM 55.2667 -112.2500 19° North 280 322 23,000  Level Edmonton Center
Mon 09:53:50 PM 55.3500 -112.2167 13° North 280 322 23,000  Level Edmonton Center
Mon 09:54:50 PM 55.4167 -112.1667 23° Northeast 280 322 23,000  Level Edmonton Center
Mon 09:55:50 PM 55.4833 -112.1167 23° Northeast 280 322 23,000  Level Edmonton Center
Mon 09:56:50 PM 55.5667 -112.0667 19° North 280 322 23,000 -133 Level Edmonton Center
Mon 09:58:50 PM 55.7167 -111.9833 17° North 280 322 22,600 -600 Descending Edmonton Center
Mon 10:00:50 PM 55.8833 -111.8667 21° North 300 345 20,600 -1,200 Descending Edmonton Center
Mon 10:01:50 PM 55.9500 -111.8167 23° Northeast 300 345 19,000 -1,950 Descending Edmonton Center
Mon 10:02:50 PM 56.0333 -111.7667 19° North 310 357 16,700 -2,250 Descending Edmonton Center
Mon 10:03:50 PM 56.1000 -111.7167 23° Northeast 300 345 14,500 -1,950 Descending Edmonton Center
Mon 10:04:50 PM 56.1833 -111.6667 18° North 290 334 12,800 -1,950 Descending Edmonton Center
Mon 10:05:50 PM 56.2667 -111.6000 24° Northeast 290 334 10,600 -2,150 Descending Edmonton Center
Mon 10:06:50 PM 56.3333 -111.5500 23° Northeast 280 322 8,500 -2,100 Descending Edmonton Center
Mon 10:07:50 PM 56.3833 -111.5167 20° North 250 288 6,400 -1,850 Descending Edmonton Center
Mon 10:08:50 PM 56.4667 -111.4667 18° North 220 253 4,800 -1,150 Descending Edmonton Center
Mon 10:09:50 PM 56.5000 -111.4500 15° North 200 230 4,100 -700 Descending Edmonton Center
Mon 10:10:50 PM 56.5500 -111.4000 29° Northeast 190 219 3,400 -700 Descending Edmonton Center
Mon 10:11:50 PM 56.6000 -111.3500 29° Northeast 190 219 2,700 -800 Descending Edmonton Center
Mon 10:12:50 PM 56.6333 -111.2833 48° Northeast 160 184 1,800 -700 Descending Edmonton Center
Mon 10:13:50 PM 56.6333 -111.2500 90° East 120 138 1,300 -500 Descending Edmonton Center

Login

Don't have an account? Register now (free) for customized features, flight alerts, and more!